PWSweather.com
Personal Weather Stations
Station Observations
KRAAKEBERG
Karmoy, SkudeneshavnNO

KarmoySkudeneshavnNO

Lat: 59.14963, Lon: 5.21978

Elevation: 32

Station Type: Davis Vantage Pro2 Plus

http://www.harduz.net

Latest ConditionsUpdated 10:15:00 PM GMT+01:01 Thursday, Sep 21, 2017
Currently Today's Max Today's Min Today's Average
Temperature 56.3°F13.5°C 57.7°F14.3°C 53.8°F12.1°C 55.6°F13.1°C
Dew Point 51.8°F11.0°C 52.5°F11.4°C 50.7°F10.4°C 51.4°F10.8°C
Winds 25.0 mph SE40.2 kmh SE 31.0 mph SSE49.9 kmh SSE - 25.3 mph 40.7 kmh
Wind Gusts 35.0 mph56.3 kmh 44.0 mph70.8 kmh - -
Humidity 85% 91% 79% 86%
Pressure 30.03 in1016.9 mb 30.04 in1017.3 mb 29.95 in1014.2 mb -
Precipitation - 0.15 in3.8 mm - -
Hour Temp Dew Point Humidity Winds Wind Gusts Pressure Precip Precip Rate Daily Precip Total
10:15 PM 56.3°F13.5°C 51.8°F11.0°C 85% 25.0 mph SE40.2 kmh SE 35.0 mph56.3 kmh 30.03 in1016.9 mb 0.01 in0.3 mm 0.00 in0.0 mm 0.15 in3.8 mm
10:00 PM 56.5°F13.6°C 52.0°F11.1°C 85% 26.0 mph SE41.8 kmh SE 34.0 mph54.7 kmh 30.03 in1016.9 mb 0.01 in0.3 mm 0.00 in0.0 mm 0.14 in3.6 mm
09:45 PM 56.5°F13.6°C 52.0°F11.1°C 85% 29.0 mph SE46.7 kmh SE 37.0 mph59.5 kmh 30.03 in1016.9 mb 0.01 in0.3 mm 0.00 in0.0 mm 0.14 in3.6 mm
09:30 PM 56.1°F13.4°C 51.7°F10.9°C 85% 28.0 mph SE45.1 kmh SE 35.0 mph56.3 kmh 30.03 in1016.9 mb 0.02 in0.5 mm 0.00 in0.0 mm 0.14 in3.6 mm
09:15 PM 55.9°F13.3°C 51.8°F11.0°C 86% 26.0 mph SE41.8 kmh SE 34.0 mph54.7 kmh 30.03 in1016.9 mb 0.02 in0.5 mm 0.04 in1.0 mm 0.14 in3.6 mm
09:00 PM 55.9°F13.3°C 51.8°F11.0°C 86% 28.0 mph SE45.1 kmh SE 35.0 mph56.3 kmh 30.04 in1017.3 mb 0.01 in0.3 mm 0.00 in0.0 mm 0.13 in3.3 mm
08:45 PM 55.9°F13.3°C 51.8°F11.0°C 86% 26.0 mph SE41.8 kmh SE 35.0 mph56.3 kmh 30.04 in1017.3 mb 0.01 in0.3 mm 0.04 in1.0 mm 0.13 in3.3 mm
08:30 PM 55.9°F13.3°C 51.5°F10.8°C 85% 25.0 mph SE40.2 kmh SE 35.0 mph56.3 kmh 30.04 in1017.3 mb 0.00 in0.0 mm 0.00 in0.0 mm 0.13 in3.3 mm
08:15 PM 56.5°F13.6°C 52.0°F11.1°C 85% 25.0 mph SE40.2 kmh SE 34.0 mph54.7 kmh 30.03 in1016.9 mb 0.00 in0.0 mm 0.00 in0.0 mm 0.13 in3.3 mm
08:00 PM 56.3°F13.5°C 51.8°F11.0°C 85% 25.0 mph SE40.2 kmh SE 31.0 mph49.9 kmh 30.04 in1017.3 mb 0.00 in0.0 mm 0.00 in0.0 mm 0.13 in3.3 mm
07:45 PM 56.5°F13.6°C 52.0°F11.1°C 85% 25.0 mph SE40.2 kmh SE 31.0 mph49.9 kmh 30.04 in1017.3 mb 0.00 in0.0 mm 0.00 in0.0 mm 0.13 in3.3 mm
07:30 PM 56.3°F13.5°C 51.5°F10.8°C 84% 26.0 mph SE41.8 kmh SE 34.0 mph54.7 kmh 30.04 in1017.3 mb 0.00 in0.0 mm 0.00 in0.0 mm 0.13 in3.3 mm
07:15 PM 56.5°F13.6°C 52.0°F11.1°C 85% 25.0 mph SE40.2 kmh SE 34.0 mph54.7 kmh 30.03 in1016.9 mb 0.00 in0.0 mm 0.00 in0.0 mm 0.13 in3.3 mm
07:00 PM 56.7°F13.7°C 52.2°F11.2°C 85% 24.0 mph SE38.6 kmh SE 30.0 mph48.3 kmh 30.03 in1016.9 mb 0.00 in0.0 mm 0.00 in0.0 mm 0.13 in3.3 mm
06:45 PM 56.5°F13.6°C 52.0°F11.1°C 85% 25.0 mph SE40.2 kmh SE 32.0 mph51.5 kmh 30.03 in1016.9 mb 0.00 in0.0 mm 0.00 in0.0 mm 0.13 in3.3 mm
06:30 PM 56.7°F13.7°C 52.2°F11.2°C 85% 24.0 mph SE38.6 kmh SE 30.0 mph48.3 kmh 30.03 in1016.9 mb 0.00 in0.0 mm 0.00 in0.0 mm 0.13 in3.3 mm
06:15 PM 56.7°F13.7°C 52.5°F11.4°C 86% 26.0 mph SE41.8 kmh SE 32.0 mph51.5 kmh 30.02 in1016.6 mb 0.00 in0.0 mm 0.00 in0.0 mm 0.13 in3.3 mm
06:00 PM 56.5°F13.6°C 52.0°F11.1°C 85% 26.0 mph SE41.8 kmh SE 32.0 mph51.5 kmh 30.02 in1016.6 mb 0.00 in0.0 mm 0.00 in0.0 mm 0.13 in3.3 mm
05:45 PM 56.3°F13.5°C 52.2°F11.2°C 86% 25.0 mph SE40.2 kmh SE 32.0 mph51.5 kmh 30.02 in1016.6 mb 0.00 in0.0 mm 0.00 in0.0 mm 0.13 in3.3 mm
05:30 PM 56.1°F13.4°C 52.0°F11.1°C 86% 23.0 mph SE37.0 kmh SE 31.0 mph49.9 kmh 30.01 in1016.3 mb 0.00 in0.0 mm 0.00 in0.0 mm 0.13 in3.3 mm
05:15 PM 55.9°F13.3°C 51.8°F11.0°C 86% 25.0 mph SE40.2 kmh SE 31.0 mph49.9 kmh 30.01 in1016.3 mb 0.00 in0.0 mm 0.00 in0.0 mm 0.13 in3.3 mm
05:00 PM 56.1°F13.4°C 52.0°F11.1°C 86% 26.0 mph SE41.8 kmh SE 32.0 mph51.5 kmh 30.01 in1016.3 mb 0.00 in0.0 mm 0.00 in0.0 mm 0.13 in3.3 mm
04:45 PM 56.5°F13.6°C 52.0°F11.1°C 85% 25.0 mph SE40.2 kmh SE 35.0 mph56.3 kmh 30.01 in1016.3 mb 0.02 in0.5 mm 0.00 in0.0 mm 0.13 in3.3 mm
04:30 PM 56.5°F13.6°C 52.3°F11.3°C 86% 24.0 mph SE38.6 kmh SE 30.0 mph48.3 kmh 30.01 in1016.3 mb 0.03 in0.8 mm 0.00 in0.0 mm 0.13 in3.3 mm
04:15 PM 56.5°F13.6°C 52.0°F11.1°C 85% 23.0 mph SE37.0 kmh SE 30.0 mph48.3 kmh 30.01 in1016.3 mb 0.03 in0.8 mm 0.00 in0.0 mm 0.13 in3.3 mm
04:00 PM 56.5°F13.6°C 52.3°F11.3°C 86% 21.0 mph SE33.8 kmh SE 29.0 mph46.7 kmh 30.01 in1016.3 mb 0.04 in1.0 mm 0.03 in0.8 mm 0.13 in3.3 mm
03:45 PM 56.7°F13.7°C 51.9°F11.1°C 84% 21.0 mph SE33.8 kmh SE 30.0 mph48.3 kmh 30.01 in1016.3 mb 0.02 in0.5 mm 0.04 in1.0 mm 0.11 in2.8 mm
03:30 PM 57.2°F14.0°C 51.8°F11.0°C 82% 29.0 mph SE46.7 kmh SE 35.0 mph56.3 kmh 30.00 in1015.9 mb 0.01 in0.3 mm 0.00 in0.0 mm 0.09 in2.3 mm
03:15 PM 57.4°F14.1°C 51.3°F10.7°C 80% 24.0 mph SE38.6 kmh SE 38.0 mph61.2 kmh 30.01 in1016.3 mb 0.01 in0.3 mm 0.04 in1.0 mm 0.09 in2.3 mm
03:00 PM 57.7°F14.3°C 51.3°F10.7°C 79% 24.0 mph SE38.6 kmh SE 36.0 mph57.9 kmh 30.01 in1016.3 mb 0.00 in0.0 mm 0.00 in0.0 mm 0.09 in2.3 mm
02:45 PM 57.7°F14.3°C 51.3°F10.7°C 79% 23.0 mph SE37.0 kmh SE 29.0 mph46.7 kmh 30.01 in1016.3 mb 0.00 in0.0 mm 0.00 in0.0 mm 0.09 in2.3 mm
02:30 PM 57.6°F14.2°C 51.4°F10.8°C 80% 23.0 mph SE37.0 kmh SE 29.0 mph46.7 kmh 30.01 in1016.3 mb 0.00 in0.0 mm 0.00 in0.0 mm 0.09 in2.3 mm
02:15 PM 57.2°F14.0°C 51.1°F10.6°C 80% 21.0 mph SE33.8 kmh SE 30.0 mph48.3 kmh 30.01 in1016.3 mb 0.00 in0.0 mm 0.00 in0.0 mm 0.09 in2.3 mm
02:00 PM 57.2°F14.0°C 51.8°F11.0°C 82% 21.0 mph SE33.8 kmh SE 28.0 mph45.1 kmh 30.01 in1016.3 mb 0.00 in0.0 mm 0.00 in0.0 mm 0.09 in2.3 mm
01:45 PM 57.0°F13.9°C 51.6°F10.9°C 82% 23.0 mph SE37.0 kmh SE 30.0 mph48.3 kmh 30.01 in1016.3 mb 0.00 in0.0 mm 0.00 in0.0 mm 0.09 in2.3 mm
01:30 PM 57.0°F13.9°C 51.6°F10.9°C 82% 21.0 mph SE33.8 kmh SE 26.0 mph41.8 kmh 30.01 in1016.3 mb 0.00 in0.0 mm 0.00 in0.0 mm 0.09 in2.3 mm
01:15 PM 56.8°F13.8°C 51.1°F10.6°C 81% 21.0 mph SE33.8 kmh SE 28.0 mph45.1 kmh 30.02 in1016.6 mb 0.00 in0.0 mm 0.00 in0.0 mm 0.09 in2.3 mm
01:00 PM 57.0°F13.9°C 51.2°F10.7°C 81% 21.0 mph SE33.8 kmh SE 28.0 mph45.1 kmh 30.01 in1016.3 mb 0.00 in0.0 mm 0.00 in0.0 mm 0.09 in2.3 mm
12:45 PM 57.0°F13.9°C 51.6°F10.9°C 82% 21.0 mph SE33.8 kmh SE 28.0 mph45.1 kmh 30.02 in1016.6 mb 0.00 in0.0 mm 0.00 in0.0 mm 0.09 in2.3 mm
12:30 PM 56.5°F13.6°C 51.4°F10.8°C 83% 21.0 mph SE33.8 kmh SE 28.0 mph45.1 kmh 30.02 in1016.6 mb 0.00 in0.0 mm 0.00 in0.0 mm 0.09 in2.3 mm
12:15 PM 56.3°F13.5°C 51.2°F10.7°C 83% 21.0 mph SE33.8 kmh SE 29.0 mph46.7 kmh 30.02 in1016.6 mb 0.00 in0.0 mm 0.00 in0.0 mm 0.09 in2.3 mm
12:00 PM 56.3°F13.5°C 51.2°F10.7°C 83% 21.0 mph SE33.8 kmh SE 29.0 mph46.7 kmh 30.01 in1016.3 mb 0.00 in0.0 mm 0.00 in0.0 mm 0.09 in2.3 mm
11:45 AM 56.1°F13.4°C 51.4°F10.8°C 84% 21.0 mph SE33.8 kmh SE 29.0 mph46.7 kmh 30.01 in1016.3 mb 0.00 in0.0 mm 0.00 in0.0 mm 0.09 in2.3 mm
11:30 AM 55.9°F13.3°C 51.2°F10.7°C 84% 23.0 mph SE37.0 kmh SE 31.0 mph49.9 kmh 30.00 in1015.9 mb 0.00 in0.0 mm 0.00 in0.0 mm 0.09 in2.3 mm
11:15 AM 55.8°F13.2°C 51.3°F10.7°C 85% 25.0 mph SE40.2 kmh SE 32.0 mph51.5 kmh 30.00 in1015.9 mb 0.00 in0.0 mm 0.00 in0.0 mm 0.09 in2.3 mm
11:00 AM 55.6°F13.1°C 50.8°F10.4°C 84% 28.0 mph SE45.1 kmh SE 37.0 mph59.5 kmh 30.00 in1015.9 mb 0.00 in0.0 mm 0.00 in0.0 mm 0.09 in2.3 mm
10:45 AM 55.6°F13.1°C 51.8°F11.0°C 87% 23.0 mph SE37.0 kmh SE 30.0 mph48.3 kmh 30.00 in1015.9 mb 0.01 in0.3 mm 0.00 in0.0 mm 0.09 in2.3 mm
10:30 AM 55.0°F12.8°C 50.9°F10.5°C 86% 26.0 mph SE41.8 kmh SE 34.0 mph54.7 kmh 30.01 in1016.3 mb 0.01 in0.3 mm 0.00 in0.0 mm 0.09 in2.3 mm
10:15 AM 54.9°F12.7°C 51.1°F10.6°C 87% 24.0 mph SE38.6 kmh SE 32.0 mph51.5 kmh 30.00 in1015.9 mb 0.01 in0.3 mm 0.00 in0.0 mm 0.09 in2.3 mm
10:00 AM 54.9°F12.7°C 51.1°F10.6°C 87% 26.0 mph SE41.8 kmh SE 32.0 mph51.5 kmh 30.00 in1015.9 mb 0.01 in0.3 mm 0.01 in0.3 mm 0.09 in2.3 mm
09:45 AM 54.5°F12.5°C 50.7°F10.4°C 87% 26.0 mph SE41.8 kmh SE 35.0 mph56.3 kmh 30.00 in1015.9 mb 0.00 in0.0 mm 0.00 in0.0 mm 0.08 in2.0 mm
09:30 AM 54.7°F12.6°C 50.9°F10.5°C 87% 28.0 mph SE45.1 kmh SE 35.0 mph56.3 kmh 30.00 in1015.9 mb 0.01 in0.3 mm 0.00 in0.0 mm 0.08 in2.0 mm
09:15 AM 54.3°F12.4°C 50.8°F10.4°C 88% 25.0 mph SE40.2 kmh SE 36.0 mph57.9 kmh 30.00 in1015.9 mb 0.01 in0.3 mm 0.00 in0.0 mm 0.08 in2.0 mm
09:00 AM 54.3°F12.4°C 51.1°F10.6°C 89% 26.0 mph SE41.8 kmh SE 35.0 mph56.3 kmh 30.00 in1015.9 mb 0.02 in0.5 mm 0.00 in0.0 mm 0.08 in2.0 mm
08:45 AM 54.1°F12.3°C 51.0°F10.6°C 89% 26.0 mph SE41.8 kmh SE 35.0 mph56.3 kmh 30.00 in1015.9 mb 0.02 in0.5 mm 0.04 in1.0 mm 0.08 in2.0 mm
08:30 AM 54.0°F12.2°C 51.1°F10.6°C 90% 28.0 mph SE45.1 kmh SE 34.0 mph54.7 kmh 29.99 in1015.6 mb 0.01 in0.3 mm 0.00 in0.0 mm 0.07 in1.8 mm
08:15 AM 53.8°F12.1°C 50.9°F10.5°C 90% 28.0 mph SE45.1 kmh SE 36.0 mph57.9 kmh 30.00 in1015.9 mb 0.02 in0.5 mm 0.00 in0.0 mm 0.07 in1.8 mm
08:00 AM 53.8°F12.1°C 50.9°F10.5°C 90% 26.0 mph SE41.8 kmh SE 32.0 mph51.5 kmh 30.00 in1015.9 mb 0.02 in0.5 mm 0.00 in0.0 mm 0.06 in1.5 mm
07:45 AM 53.8°F12.1°C 50.9°F10.5°C 90% 26.0 mph SE41.8 kmh SE 35.0 mph56.3 kmh 30.00 in1015.9 mb 0.03 in0.8 mm 0.00 in0.0 mm 0.06 in1.5 mm
07:30 AM 54.1°F12.3°C 51.0°F10.6°C 89% 31.0 mph SE49.9 kmh SE 40.0 mph64.4 kmh 29.99 in1015.6 mb 0.03 in0.8 mm 0.04 in1.0 mm 0.06 in1.5 mm
07:15 AM 54.0°F12.2°C 50.8°F10.4°C 89% 29.0 mph SE46.7 kmh SE 40.0 mph64.4 kmh 29.99 in1015.6 mb 0.02 in0.5 mm 0.00 in0.0 mm 0.05 in1.3 mm
07:00 AM 54.0°F12.2°C 51.1°F10.6°C 90% 21.0 mph SE33.8 kmh SE 28.0 mph45.1 kmh 29.99 in1015.6 mb 0.02 in0.5 mm 0.00 in0.0 mm 0.04 in1.0 mm
06:45 AM 54.5°F12.5°C 51.3°F10.7°C 89% 25.0 mph SE40.2 kmh SE 30.0 mph48.3 kmh 29.98 in1015.2 mb 0.02 in0.5 mm 0.00 in0.0 mm 0.03 in0.8 mm
06:30 AM 54.5°F12.5°C 51.0°F10.6°C 88% 25.0 mph SE40.2 kmh SE 31.0 mph49.9 kmh 29.98 in1015.2 mb 0.02 in0.5 mm 0.04 in1.0 mm 0.03 in0.8 mm
06:15 AM 54.5°F12.5°C 51.0°F10.6°C 88% 28.0 mph SE45.1 kmh SE 36.0 mph57.9 kmh 29.98 in1015.2 mb 0.01 in0.3 mm 0.00 in0.0 mm 0.02 in0.5 mm
06:00 AM 55.0°F12.8°C 51.2°F10.7°C 87% 28.0 mph SE45.1 kmh SE 37.0 mph59.5 kmh 29.98 in1015.2 mb 0.01 in0.3 mm 0.01 in0.3 mm 0.02 in0.5 mm
05:45 AM 54.9°F12.7°C 51.4°F10.8°C 88% 28.0 mph SE45.1 kmh SE 34.0 mph54.7 kmh 29.98 in1015.2 mb 0.00 in0.0 mm 0.00 in0.0 mm 0.02 in0.5 mm
05:30 AM 54.9°F12.7°C 51.1°F10.6°C 87% 30.0 mph SE48.3 kmh SE 41.0 mph66.0 kmh 29.97 in1014.9 mb 0.00 in0.0 mm 0.00 in0.0 mm 0.02 in0.5 mm
05:15 AM 55.0°F12.8°C 51.5°F10.8°C 88% 30.0 mph SE48.3 kmh SE 37.0 mph59.5 kmh 29.97 in1014.9 mb 0.00 in0.0 mm 0.00 in0.0 mm 0.02 in0.5 mm
05:00 AM 55.2°F12.9°C 51.1°F10.6°C 86% 31.0 mph SE49.9 kmh SE 40.0 mph64.4 kmh 29.97 in1014.9 mb 0.00 in0.0 mm 0.00 in0.0 mm 0.02 in0.5 mm
04:45 AM 55.6°F13.1°C 51.5°F10.8°C 86% 30.0 mph SE48.3 kmh SE 37.0 mph59.5 kmh 29.96 in1014.6 mb 0.00 in0.0 mm 0.00 in0.0 mm 0.02 in0.5 mm
04:30 AM 55.2°F12.9°C 51.7°F10.9°C 88% 29.0 mph SE46.7 kmh SE 35.0 mph56.3 kmh 29.97 in1014.9 mb 0.00 in0.0 mm 0.00 in0.0 mm 0.02 in0.5 mm
04:15 AM 54.9°F12.7°C 51.4°F10.8°C 88% 29.0 mph SE46.7 kmh SE 37.0 mph59.5 kmh 29.96 in1014.6 mb 0.00 in0.0 mm 0.00 in0.0 mm 0.02 in0.5 mm
04:00 AM 55.0°F12.8°C 51.5°F10.8°C 88% 31.0 mph SE49.9 kmh SE 44.0 mph70.8 kmh 29.96 in1014.6 mb 0.00 in0.0 mm 0.00 in0.0 mm 0.02 in0.5 mm
03:45 AM 55.6°F13.1°C 51.5°F10.8°C 86% 31.0 mph SSE49.9 kmh SSE 43.0 mph69.2 kmh 29.97 in1014.9 mb 0.00 in0.0 mm 0.00 in0.0 mm 0.02 in0.5 mm
03:30 AM 55.6°F13.1°C 51.5°F10.8°C 86% 29.0 mph SE46.7 kmh SE 38.0 mph61.2 kmh 29.96 in1014.6 mb 0.00 in0.0 mm 0.00 in0.0 mm 0.02 in0.5 mm
03:15 AM 55.0°F12.8°C 51.2°F10.7°C 87% 28.0 mph SE45.1 kmh SE 35.0 mph56.3 kmh 29.96 in1014.6 mb 0.00 in0.0 mm 0.00 in0.0 mm 0.02 in0.5 mm
03:00 AM 54.9°F12.7°C 51.1°F10.6°C 87% 29.0 mph SSE46.7 kmh SSE 40.0 mph64.4 kmh 29.97 in1014.9 mb 0.00 in0.0 mm 0.00 in0.0 mm 0.02 in0.5 mm
02:45 AM 55.2°F12.9°C 51.1°F10.6°C 86% 29.0 mph SSE46.7 kmh SSE 38.0 mph61.2 kmh 29.97 in1014.9 mb 0.00 in0.0 mm 0.00 in0.0 mm 0.02 in0.5 mm
02:30 AM 55.8°F13.2°C 52.3°F11.3°C 88% 24.0 mph SE38.6 kmh SE 30.0 mph48.3 kmh 29.97 in1014.9 mb 0.00 in0.0 mm 0.00 in0.0 mm 0.02 in0.5 mm
02:15 AM 54.9°F12.7°C 51.4°F10.8°C 88% 25.0 mph SE40.2 kmh SE 34.0 mph54.7 kmh 29.96 in1014.6 mb 0.00 in0.0 mm 0.00 in0.0 mm 0.02 in0.5 mm
02:00 AM 54.3°F12.4°C 50.8°F10.4°C 88% 28.0 mph SSE45.1 kmh SSE 35.0 mph56.3 kmh 29.96 in1014.6 mb 0.00 in0.0 mm 0.00 in0.0 mm 0.02 in0.5 mm
01:45 AM 55.2°F12.9°C 51.7°F10.9°C 88% 24.0 mph SE38.6 kmh SE 30.0 mph48.3 kmh 29.96 in1014.6 mb 0.00 in0.0 mm 0.00 in0.0 mm 0.02 in0.5 mm
01:30 AM 54.3°F12.4°C 51.1°F10.6°C 89% 23.0 mph SE37.0 kmh SE 28.0 mph45.1 kmh 29.95 in1014.2 mb 0.00 in0.0 mm 0.00 in0.0 mm 0.02 in0.5 mm
01:15 AM 54.3°F12.4°C 50.8°F10.4°C 88% 24.0 mph SE38.6 kmh SE 30.0 mph48.3 kmh 29.96 in1014.6 mb 0.00 in0.0 mm 0.00 in0.0 mm 0.02 in0.5 mm
01:00 AM 54.5°F12.5°C 50.7°F10.4°C 87% 23.0 mph SE37.0 kmh SE 30.0 mph48.3 kmh 29.95 in1014.2 mb 0.01 in0.3 mm 0.00 in0.0 mm 0.02 in0.5 mm
12:45 AM 54.3°F12.4°C 50.8°F10.4°C 88% 23.0 mph SE37.0 kmh SE 29.0 mph46.7 kmh 29.95 in1014.2 mb 0.01 in0.3 mm 0.00 in0.0 mm 0.02 in0.5 mm
12:30 AM 54.3°F12.4°C 50.8°F10.4°C 88% 23.0 mph SE37.0 kmh SE 29.0 mph46.7 kmh 29.95 in1014.2 mb 0.02 in0.5 mm 0.00 in0.0 mm 0.02 in0.5 mm
12:15 AM 54.1°F12.3°C 50.7°F10.4°C 88% 23.0 mph SE37.0 kmh SE 26.0 mph41.8 kmh 29.95 in1014.2 mb 0.02 in0.5 mm 0.04 in1.0 mm 0.02 in0.5 mm
12:00 AM 54.5°F12.5°C 51.9°F11.1°C 91% 20.0 mph SE32.2 kmh SE 24.0 mph38.6 kmh 29.95 in1014.2 mb 0.01 in0.3 mm 0.00 in0.0 mm 0.01 in0.3 mm